Observation data for Denver City on 05/23/2020      Previous  Date  Next       Current Mesonet Observations  Soil Data  Daily Summary Page  Observations in Plain Language
KDVS 230500Z 22008KT 19/M09 A2985 RMK A01 T01911091  RH  014%=      5-min Rain = 0
KDVS 230505Z 22008KT 19/M09 A2985 RMK A01 T01891091  RH  014%=      5-min Rain = 0
KDVS 230510Z 21008KT 19/M09 A2985 RMK A01 T01851092  RH  014%=      5-min Rain = 0
KDVS 230515Z 21008KT 18/M09 A2985 RMK A01 T01811087  RH  015%=      5-min Rain = 0
KDVS 230520Z 21009KT 18/M09 A2985 RMK A01 T01771090  RH  015%=      5-min Rain = 0
KDVS 230525Z 21009KT 17/M10 A2984 RMK A01 T01721098  RH  015%=      5-min Rain = 0
KDVS 230530Z 22008KT 17/M10 A2984 RMK A01 T01701097  RH  015%=      5-min Rain = 0
KDVS 230535Z 22008KT 17/M09 A2984 RMK A01 T01681094  RH  016%=      5-min Rain = 0
KDVS 230540Z 22009KT 17/M08 A2984 RMK A01 T01701081  RH  017%=      5-min Rain = 0
KDVS 230545Z 22009KT 17/M07 A2984 RMK A01 T01711067  RH  019%=      5-min Rain = 0
KDVS 230550Z 22009KT 17/M07 A2984 RMK A01 T01701066  RH  019%=      5-min Rain = 0
KDVS 230555Z 21010KT 17/M08 A2984 RMK A01 T01701075  RH  018%=      5-min Rain = 0
KDVS 230600Z 21009KT 17/M08 A2984 RMK A01 T01701082  RH  017%=      5-min Rain = 0
KDVS 230605Z 21010KT 17/M09 A2984 RMK A01 T01731089  RH  016%=      5-min Rain = 0
KDVS 230610Z 22010KT 18/M10 A2984 RMK A01 T01751096  RH  015%=      5-min Rain = 0
KDVS 230615Z 22009KT 18/M09 A2984 RMK A01 T01771093  RH  015%=      5-min Rain = 0
KDVS 230620Z 22009KT 18/M09 A2984 RMK A01 T01751085  RH  016%=      5-min Rain = 0
KDVS 230625Z 22009KT 18/M08 A2984 RMK A01 T01751082  RH  016%=      5-min Rain = 0
KDVS 230630Z 22009KT 18/M08 A2984 RMK A01 T01761079  RH  017%=      5-min Rain = 0
KDVS 230635Z 22010KT 18/M08 A2984 RMK A01 T01771079  RH  017%=      5-min Rain = 0
KDVS 230640Z 20011KT 18/M09 A2984 RMK A01 T01781088  RH  016%=      5-min Rain = 0
KDVS 230645Z 20010KT 18/M10 A2985 RMK A01 T01831099  RH  014%=      5-min Rain = 0
KDVS 230650Z 21010KT 18/M10 A2984 RMK A01 T01811100  RH  014%=      5-min Rain = 0
KDVS 230655Z 22011KT 18/M11 A2984 RMK A01 T01811105  RH  013%=      5-min Rain = 0
KDVS 230700Z 22010KT 19/M11 A2984 RMK A01 T01911107  RH  012%=      5-min Rain = 0
KDVS 230705Z 22010KT 20/M11 A2984 RMK A01 T01971107  RH  012%=      5-min Rain = 0
KDVS 230710Z 23009KT 20/M10 A2984 RMK A01 T01971101  RH  012%=      5-min Rain = 0
KDVS 230715Z 23008KT 19/M09 A2984 RMK A01 T01931093  RH  013%=      5-min Rain = 0
KDVS 230720Z 21009KT 19/M09 A2984 RMK A01 T01881094  RH  014%=      5-min Rain = 0
KDVS 230725Z 22009KT 19/M10 A2983 RMK A01 T01891098  RH  013%=      5-min Rain = 0
KDVS 230730Z 24007KT 18/M10 A2983 RMK A01 T01841095  RH  014%=      5-min Rain = 0
KDVS 230735Z 24007KT 18/M09 A2983 RMK A01 T01771086  RH  016%=      5-min Rain = 0
KDVS 230740Z 23006KT 17/M09 A2983 RMK A01 T01721086  RH  016%=      5-min Rain = 0
KDVS 230745Z 21006KT 17/M08 A2983 RMK A01 T01661079  RH  018%=      5-min Rain = 0
KDVS 230750Z 22008KT 17/M08 A2983 RMK A01 T01671078  RH  018%=      5-min Rain = 0
KDVS 230755Z 23009KT 17/M08 A2983 RMK A01 T01651077  RH  018%=      5-min Rain = 0
KDVS 230800Z 23009KT 17/M07 A2983 RMK A01 T01691068  RH  019%=      5-min Rain = 0
KDVS 230805Z 22009KT 17/M05 A2983 RMK A01 T01721052  RH  021%=      5-min Rain = 0
KDVS 230810Z 21007KT 18/M04 A2983 RMK A01 T01751036  RH  024%=      5-min Rain = 0
KDVS 230815Z 20006KT 17/M04 A2983 RMK A01 T01691035  RH  025%=      5-min Rain = 0
KDVS 230820Z 21007KT 16/M03 A2982 RMK A01 T01631033  RH  026%=      5-min Rain = 0
KDVS 230825Z 21008KT 16/M03 A2982 RMK A01 T01631033  RH  026%=      5-min Rain = 0
KDVS 230830Z 21007KT 16/M04 A2982 RMK A01 T01611037  RH  026%=      5-min Rain = 0
KDVS 230835Z 20006KT 16/M04 A2982 RMK A01 T01601037  RH  026%=      5-min Rain = 0
KDVS 230840Z 20006KT 16/M04 A2982 RMK A01 T01601036  RH  026%=      5-min Rain = 0
KDVS 230845Z 20005KT 16/M04 A2983 RMK A01 T01581036  RH  026%=      5-min Rain = 0
KDVS 230850Z 20004KT 16/M04 A2983 RMK A01 T01551038  RH  026%=      5-min Rain = 0
KDVS 230855Z 19006KT 15/M03 A2983 RMK A01 T01541032  RH  028%=      5-min Rain = 0
KDVS 230900Z 18006KT 15/M03 A2983 RMK A01 T01531028  RH  029%=      5-min Rain = 0
KDVS 230905Z 17006KT 15/M02 A2983 RMK A01 T01491022  RH  031%=      5-min Rain = 0
KDVS 230910Z 19007KT 15/M01 A2983 RMK A01 T01501010  RH  034%=      5-min Rain = 0
KDVS 230915Z 19006KT 16/00 A2983 RMK A01 T01580002  RH  035%=      5-min Rain = 0
KDVS 230920Z 19006KT 16/00 A2983 RMK A01 T01590003  RH  035%=      5-min Rain = 0
KDVS 230925Z 20006KT 16/01 A2983 RMK A01 T01570005  RH  036%=      5-min Rain = 0
KDVS 230930Z 20006KT 16/01 A2983 RMK A01 T01560007  RH  037%=      5-min Rain = 0
KDVS 230935Z 20005KT 15/01 A2983 RMK A01 T01540008  RH  038%=      5-min Rain = 0
KDVS 230940Z 20006KT 15/01 A2984 RMK A01 T01510007  RH  038%=      5-min Rain = 0
KDVS 230945Z 20007KT 15/01 A2984 RMK A01 T01490010  RH  039%=      5-min Rain = 0
KDVS 230950Z 19007KT 15/02 A2984 RMK A01 T01490015  RH  041%=      5-min Rain = 0
KDVS 230955Z 19005KT 15/02 A2984 RMK A01 T01490016  RH  041%=      5-min Rain = 0
KDVS 231000Z 18006KT 15/02 A2984 RMK A01 T01490020  RH  042%=      5-min Rain = 0
KDVS 231005Z 19006KT 15/03 A2984 RMK A01 T01510029  RH  045%=      5-min Rain = 0
KDVS 231010Z 20006KT 15/03 A2984 RMK A01 T01530029  RH  044%=      5-min Rain = 0
KDVS 231015Z 19006KT 15/03 A2984 RMK A01 T01520033  RH  045%=      5-min Rain = 0
KDVS 231020Z 20006KT 15/03 A2985 RMK A01 T01510031  RH  045%=      5-min Rain = 0
KDVS 231025Z 21005KT 15/03 A2985 RMK A01 T01500029  RH  045%=      5-min Rain = 0
KDVS 231030Z 21006KT 15/03 A2985 RMK A01 T01500033  RH  046%=      5-min Rain = 0
KDVS 231035Z 21006KT 15/03 A2985 RMK A01 T01500030  RH  045%=      5-min Rain = 0
KDVS 231040Z 21006KT 15/03 A2985 RMK A01 T01460029  RH  046%=      5-min Rain = 0
KDVS 231045Z 22007KT 14/03 A2986 RMK A01 T01440026  RH  046%=      5-min Rain = 0
KDVS 231050Z 22007KT 14/03 A2986 RMK A01 T01440029  RH  047%=      5-min Rain = 0
KDVS 231055Z 22007KT 14/03 A2986 RMK A01 T01440027  RH  046%=      5-min Rain = 0
KDVS 231100Z 22008KT 14/03 A2986 RMK A01 T01430025  RH  046%=      5-min Rain = 0
KDVS 231105Z 22008KT 14/02 A2986 RMK A01 T01440022  RH  044%=      5-min Rain = 0
KDVS 231110Z 22008KT 15/02 A2986 RMK A01 T01450021  RH  044%=      5-min Rain = 0
KDVS 231115Z 22008KT 14/02 A2986 RMK A01 T01440020  RH  044%=      5-min Rain = 0
KDVS 231120Z 21007KT 14/02 A2986 RMK A01 T01440023  RH  045%=      5-min Rain = 0
KDVS 231125Z 19006KT 14/02 A2987 RMK A01 T01430021  RH  044%=      5-min Rain = 0
KDVS 231130Z 14006KT 13/02 A2987 RMK A01 T01320023  RH  048%=      5-min Rain = 0
KDVS 231135Z 15006KT 13/04 A2987 RMK A01 T01290037  RH  055%=      5-min Rain = 0
KDVS 231140Z 14008KT 13/05 A2988 RMK A01 T01300050  RH  060%=      5-min Rain = 0
KDVS 231145Z 15007KT 13/06 A2988 RMK A01 T01300061  RH  064%=      5-min Rain = 0
KDVS 231150Z 15007KT 13/07 A2988 RMK A01 T01340068  RH  066%=      5-min Rain = 0
KDVS 231155Z 14007KT 13/07 A2988 RMK A01 T01340067  RH  066%=      5-min Rain = 0
KDVS 231200Z 15006KT 13/07 A2989 RMK A01 T01330071  RH  068%=      5-min Rain = 0
KDVS 231205Z 19004KT 14/08 A2989 RMK A01 T01370077  RH  069%=      5-min Rain = 0
KDVS 231210Z 30006KT 14/07 A299 RMK A01 T01400065  RH  062%=      5-min Rain = 0
KDVS 231215Z 27003KT 14/06 A299 RMK A01 T01430059  RH  059%=      5-min Rain = 0
KDVS 231220Z 24003KT 15/06 A299 RMK A01 T01450062  RH  059%=      5-min Rain = 0
KDVS 231225Z 26003KT 15/06 A299 RMK A01 T01480060  RH  057%=      5-min Rain = 0
KDVS 231230Z 28003KT 15/05 A299 RMK A01 T01490052  RH  053%=      5-min Rain = 0
KDVS 231235Z 25002KT 15/05 A299 RMK A01 T01530049  RH  051%=      5-min Rain = 0
KDVS 231240Z 29003KT 16/04 A299 RMK A01 T01570043  RH  048%=      5-min Rain = 0
KDVS 231245Z 28003KT 16/04 A299 RMK A01 T01600042  RH  046%=      5-min Rain = 0
KDVS 231250Z 26003KT 17/05 A299 RMK A01 T01670045  RH  045%=      5-min Rain = 0
KDVS 231255Z 26002KT 17/05 A299 RMK A01 T01730045  RH  044%=      5-min Rain = 0
KDVS 231300Z 26001KT 18/04 A299 RMK A01 T01790044  RH  042%=      5-min Rain = 0
KDVS 231305Z 26000KT 18/04 A299 RMK A01 T01840043  RH  040%=      5-min Rain = 0
KDVS 231310Z 21001KT 19/05 A299 RMK A01 T01890048  RH  040%=      5-min Rain = 0
KDVS 231315Z 21002KT 19/06 A299 RMK A01 T01910062  RH  044%=      5-min Rain = 0
KDVS 231320Z 18003KT 19/07 A299 RMK A01 T01940070  RH  046%=      5-min Rain = 0
KDVS 231325Z 17004KT 20/09 A2991 RMK A01 T01990090  RH  051%=      5-min Rain = 0
KDVS 231330Z 17005KT 20/10 A2991 RMK A01 T02040096  RH  052%=      5-min Rain = 0
KDVS 231335Z 16006KT 21/11 A2991 RMK A01 T02100110  RH  055%=      5-min Rain = 0
KDVS 231340Z 16009KT 21/13 A2991 RMK A01 T02140125  RH  059%=      5-min Rain = 0
KDVS 231345Z 16009KT 22/13 A2991 RMK A01 T02180127  RH  059%=      5-min Rain = 0
KDVS 231350Z 18009KT 22/13 A2991 RMK A01 T02180125  RH  058%=      5-min Rain = 0
KDVS 231355Z 17008KT 22/12 A2991 RMK A01 T02210124  RH  056%=      5-min Rain = 0
KDVS 231400Z 17009KT 22/12 A2991 RMK A01 T02240123  RH  055%=      5-min Rain = 0
KDVS 231405Z 18009KT 23/12 A2991 RMK A01 T02270122  RH  054%=      5-min Rain = 0
KDVS 231410Z 18009KT 23/12 A2991 RMK A01 T02290122  RH  053%=      5-min Rain = 0
KDVS 231415Z 18010KT 23/12 A2991 RMK A01 T02300123  RH  053%=      5-min Rain = 0
KDVS 231420Z 19010KT 23/12 A2991 RMK A01 T02320124  RH  053%=      5-min Rain = 0
KDVS 231425Z 18010KT 24/13 A2991 RMK A01 T02350125  RH  052%=      5-min Rain = 0
KDVS 231430Z 19010KT 24/13 A2991 RMK A01 T02410126  RH  050%=      5-min Rain = 0
KDVS 231435Z 19009G14KT 24/13 A2991 RMK A01 T02410125  RH  050%=      5-min Rain = 0
KDVS 231440Z 19010KT 24/13 A2991 RMK A01 T02440125  RH  049%=      5-min Rain = 0
KDVS 231445Z 19010KT 25/13 A2991 RMK A01 T02460126  RH  049%=      5-min Rain = 0
KDVS 231450Z 18009KT 25/13 A2991 RMK A01 T02480126  RH  048%=      5-min Rain = 0
KDVS 231455Z 19010KT 25/13 A299 RMK A01 T02490126  RH  048%=      5-min Rain = 0
KDVS 231500Z 20009KT 25/12 A299 RMK A01 T02490124  RH  048%=      5-min Rain = 0
KDVS 231505Z 19008KT 25/12 A299 RMK A01 T02520121  RH  046%=      5-min Rain = 0
KDVS 231510Z 20008G13KT 25/12 A299 RMK A01 T02540121  RH  045%=      5-min Rain = 0
KDVS 231515Z 20008KT 26/12 A299 RMK A01 T02570117  RH  043%=      5-min Rain = 0
KDVS 231520Z 19009KT 26/11 A299 RMK A01 T02630110  RH  040%=      5-min Rain = 0
KDVS 231525Z 20008KT 26/10 A299 RMK A01 T02640104  RH  038%=      5-min Rain = 0
KDVS 231530Z 21008KT 27/10 A299 RMK A01 T02660095  RH  035%=      5-min Rain = 0
KDVS 231535Z 20007KT 27/09 A299 RMK A01 T02690089  RH  033%=      5-min Rain = 0
KDVS 231540Z 20008KT 27/09 A299 RMK A01 T02720085  RH  032%=      5-min Rain = 0
KDVS 231545Z 20006KT 28/08 A299 RMK A01 T02760084  RH  031%=      5-min Rain = 0
KDVS 231550Z 21007KT 28/08 A299 RMK A01 T02790079  RH  029%=      5-min Rain = 0
KDVS 231555Z 22007KT 28/07 A299 RMK A01 T02830069  RH  026%=      5-min Rain = 0
KDVS 231600Z 23006KT 28/05 A2989 RMK A01 T02820054  RH  024%=      5-min Rain = 0
KDVS 231605Z 23005KT 29/05 A2989 RMK A01 T02850052  RH  023%=      5-min Rain = 0
KDVS 231610Z 23006KT 29/04 A2989 RMK A01 T02890041  RH  021%=      5-min Rain = 0
KDVS 231615Z 21005KT 29/04 A2989 RMK A01 T02940037  RH  020%=      5-min Rain = 0
KDVS 231620Z 22004KT 30/03 A2989 RMK A01 T02980028  RH  018%=      5-min Rain = 0
KDVS 231625Z 22005KT 30/02 A2989 RMK A01 T03010020  RH  017%=      5-min Rain = 0
KDVS 231630Z 17005KT 30/02 A2988 RMK A01 T03030015  RH  016%=      5-min Rain = 0
KDVS 231635Z 21005G10KT 30/01 A2988 RMK A01 T03040009  RH  015%=      5-min Rain = 0
KDVS 231640Z 22005KT 30/00 A2988 RMK A01 T03020003  RH  015%=      5-min Rain = 0
KDVS 231645Z 21006KT 31/M01 A2988 RMK A01 T03061011  RH  013%=      5-min Rain = 0
KDVS 231650Z 16006KT 31/M02 A2988 RMK A01 T03101023  RH  012%=      5-min Rain = 0
KDVS 231655Z 18003G8KT 31/M02 A2988 RMK A01 T03121016  RH  012%=      5-min Rain = 0
KDVS 231700Z 20005KT 31/M02 A2988 RMK A01 T03111021  RH  012%=      5-min Rain = 0
KDVS 231705Z 16004KT 32/M03 A2988 RMK A01 T03151026  RH  011%=      5-min Rain = 0
KDVS 231710Z 21006G11KT 32/M03 A2987 RMK A01 T03151030  RH  011%=      5-min Rain = 0
KDVS 231715Z 23006KT 32/M03 A2987 RMK A01 T03161031  RH  011%=      5-min Rain = 0
KDVS 231720Z 20005KT 32/M03 A2987 RMK A01 T03161027  RH  011%=      5-min Rain = 0
KDVS 231725Z 24009KT 32/M03 A2987 RMK A01 T03201032  RH  010%=      5-min Rain = 0
KDVS 231730Z 23007KT 32/M04 A2987 RMK A01 T03181040  RH  010%=      5-min Rain = 0
KDVS 231735Z 18006G11KT 32/M04 A2987 RMK A01 T03201038  RH  010%=      5-min Rain = 0
KDVS 231740Z 15006KT 32/M03 A2987 RMK A01 T03221028  RH  010%=      5-min Rain = 0
KDVS 231745Z 18003KT 32/M03 A2987 RMK A01 T03191027  RH  011%=      5-min Rain = 0
KDVS 231750Z 22009G14KT 32/M04 A2987 RMK A01 T03231035  RH  010%=      5-min Rain = 0
KDVS 231755Z 23004G12KT 32/M04 A2986 RMK A01 T03221039  RH  010%=      5-min Rain = 0
KDVS 231800Z 18011KT 33/M04 A2986 RMK A01 T03271035  RH  010%=      5-min Rain = 0
KDVS 231805Z 17006G11KT 33/M03 A2986 RMK A01 T03261034  RH  010%=      5-min Rain = 0
KDVS 231810Z 12005G11KT 33/M03 A2986 RMK A01 T03311032  RH  010%=      5-min Rain = 0
KDVS 231815Z 18008G16KT 33/M03 A2985 RMK A01 T03311030  RH  010%=      5-min Rain = 0
KDVS 231820Z 17011KT 33/M03 A2985 RMK A01 T03311028  RH  010%=      5-min Rain = 0
KDVS 231825Z 16008G13KT 33/M03 A2985 RMK A01 T03311029  RH  010%=      5-min Rain = 0
KDVS 231830Z 17005G13KT 33/M03 A2985 RMK A01 T03291028  RH  010%=      5-min Rain = 0
KDVS 231835Z 18010G30KT 33/M03 A2984 RMK A01 T03311032  RH  010%=      5-min Rain = 0
KDVS 231840Z 18007KT 33/M03 A2984 RMK A01 T03331034  RH  009%=      5-min Rain = 0
KDVS 231845Z 19009G14KT 34/M04 A2984 RMK A01 T03351035  RH  009%=      5-min Rain = 0
KDVS 231850Z 17007KT 33/M03 A2984 RMK A01 T03331033  RH  009%=      5-min Rain = 0
KDVS 231855Z 19011G17KT 33/M03 A2984 RMK A01 T03321032  RH  010%=      5-min Rain = 0
KDVS 231900Z 18005G12KT 33/M03 A2983 RMK A01 T03291030  RH  010%=      5-min Rain = 0
KDVS 231905Z 16004G10KT 33/M03 A2983 RMK A01 T03301026  RH  010%=      5-min Rain = 0
KDVS 231910Z 21009G14KT 34/M03 A2983 RMK A01 T03351031  RH  010%=      5-min Rain = 0
KDVS 231915Z 22004KT 34/M03 A2983 RMK A01 T03351031  RH  009%=      5-min Rain = 0
KDVS 231920Z 24008G14KT 33/M03 A2982 RMK A01 T03341031  RH  010%=      5-min Rain = 0
KDVS 231925Z 20005G10KT 33/M03 A2982 RMK A01 T03311030  RH  010%=      5-min Rain = 0
KDVS 231930Z 17009G18KT 34/M03 A2982 RMK A01 T03381026  RH  010%=      5-min Rain = 0
KDVS 231935Z 18012G21KT 34/M03 A2982 RMK A01 T03391029  RH  009%=      5-min Rain = 0
KDVS 231940Z 18013G20KT 34/M03 A2982 RMK A01 T03371029  RH  009%=      5-min Rain = 0
KDVS 231945Z 19009G16KT 34/M03 A2982 RMK A01 T03351027  RH  010%=      5-min Rain = 0
KDVS 231950Z 18009G18KT 34/M03 A2982 RMK A01 T03371025  RH  010%=      5-min Rain = 0
KDVS 231955Z 20009G16KT 34/M02 A2981 RMK A01 T03381024  RH  010%=      5-min Rain = 0
KDVS 232000Z 19011G16KT 34/M02 A2981 RMK A01 T03411020  RH  010%=      5-min Rain = 0
KDVS 232005Z 17007G15KT 34/M02 A2981 RMK A01 T03401020  RH  010%=      5-min Rain = 0
KDVS 232010Z 15010G17KT 34/M02 A2981 RMK A01 T03401015  RH  010%=      5-min Rain = 0
KDVS 232015Z 16012G19KT 35/M01 A2981 RMK A01 T03451009  RH  011%=      5-min Rain = 0
KDVS 232020Z 19013G20KT 35/M02 A298 RMK A01 T03461016  RH  010%=      5-min Rain = 0
KDVS 232025Z 18014G22KT 34/M02 A298 RMK A01 T03431017  RH  010%=      5-min Rain = 0
KDVS 232030Z 17010KT 34/M01 A298 RMK A01 T03391014  RH  011%=      5-min Rain = 0
KDVS 232035Z 18011G21KT 34/M02 A2979 RMK A01 T03401015  RH  010%=      5-min Rain = 0
KDVS 232040Z 20009G18KT 34/M02 A2979 RMK A01 T03441018  RH  010%=      5-min Rain = 0
KDVS 232045Z 18007G12KT 34/M01 A2979 RMK A01 T03441010  RH  011%=      5-min Rain = 0
KDVS 232050Z 16010G21KT 34/01 A2978 RMK A01 T03440009  RH  012%=      5-min Rain = 0
KDVS 232055Z 17015G23KT 34/01 A2978 RMK A01 T03390008  RH  012%=      5-min Rain = 0
KDVS 232100Z 14008KT 34/01 A2978 RMK A01 T03380012  RH  013%=      5-min Rain = 0
KDVS 232105Z 15010G15KT 34/02 A2977 RMK A01 T03350016  RH  013%=      5-min Rain = 0
KDVS 232110Z 14012G20KT 34/02 A2977 RMK A01 T03420016  RH  013%=      5-min Rain = 0
KDVS 232115Z 16012G17KT 34/01 A2977 RMK A01 T03420010  RH  012%=      5-min Rain = 0
KDVS 232120Z 18010G16KT 34/01 A2976 RMK A01 T03430007  RH  012%=      5-min Rain = 0
KDVS 232125Z 15016G24KT 35/03 A2976 RMK A01 T03480027  RH  014%=      5-min Rain = 0
KDVS 232130Z 15012G23KT 34/02 A2975 RMK A01 T03410024  RH  014%=      5-min Rain = 0
KDVS 232135Z 19017G25KT 35/M01 A2975 RMK A01 T03471010  RH  010%=      5-min Rain = 0
KDVS 232140Z 18013G23KT 35/M02 A2975 RMK A01 T03451019  RH  010%=      5-min Rain = 0
KDVS 232145Z 19007G12KT 34/M02 A2975 RMK A01 T03421017  RH  010%=      5-min Rain = 0
KDVS 232150Z 20017G26KT 35/M02 A2975 RMK A01 T03461023  RH  009%=      5-min Rain = 0
KDVS 232155Z 21011KT 34/M03 A2974 RMK A01 T03441025  RH  009%=      5-min Rain = 0
KDVS 232200Z 21012G19KT 34/M02 A2974 RMK A01 T03441021  RH  010%=      5-min Rain = 0
KDVS 232205Z 21009KT 34/M02 A2973 RMK A01 T03441018  RH  010%=      5-min Rain = 0
KDVS 232210Z 23016G24KT 34/M03 A2973 RMK A01 T03441029  RH  009%=      5-min Rain = 0
KDVS 232215Z 23017G33KT 35/M03 A2973 RMK A01 T03451028  RH  009%=      5-min Rain = 0
KDVS 232220Z 21014G19KT 35/M03 A2973 RMK A01 T03461026  RH  009%=      5-min Rain = 0
KDVS 232225Z 22010G17KT 34/M03 A2972 RMK A01 T03441027  RH  009%=      5-min Rain = 0
KDVS 232230Z 23012G19KT 34/M03 A2972 RMK A01 T03421034  RH  009%=      5-min Rain = 0
KDVS 232235Z 22013G20KT 34/M04 A2971 RMK A01 T03441036  RH  009%=      5-min Rain = 0
KDVS 232240Z 19015G22KT 35/M04 A2971 RMK A01 T03461038  RH  008%=      5-min Rain = 0
KDVS 232245Z 19011G17KT 34/M04 A297 RMK A01 T03421040  RH  008%=      5-min Rain = 0
KDVS 232250Z 22015G21KT 35/M05 A297 RMK A01 T03451048  RH  008%=      5-min Rain = 0
KDVS 232255Z 21019G25KT 35/M05 A2969 RMK A01 T03481050  RH  008%=      5-min Rain = 0
KDVS 232300Z 19015G23KT 35/M04 A2969 RMK A01 T03461044  RH  008%=      5-min Rain = 0
KDVS 232305Z 22016G21KT 35/M05 A2969 RMK A01 T03461048  RH  008%=      5-min Rain = 0
KDVS 232310Z 21017G23KT 34/M05 A2969 RMK A01 T03441049  RH  008%=      5-min Rain = 0
KDVS 232315Z 21019G25KT 35/M05 A2969 RMK A01 T03451048  RH  008%=      5-min Rain = 0
KDVS 232320Z 21018G24KT 34/M05 A2969 RMK A01 T03431046  RH  008%=      5-min Rain = 0
KDVS 232325Z 22015G23KT 34/M05 A2969 RMK A01 T03421048  RH  008%=      5-min Rain = 0
KDVS 232330Z 22019G25KT 35/M05 A2969 RMK A01 T03451050  RH  008%=      5-min Rain = 0
KDVS 232335Z 23021G26KT 34/M05 A2969 RMK A01 T03411054  RH  008%=      5-min Rain = 0
KDVS 232340Z 21018G23KT 34/M05 A297 RMK A01 T03411052  RH  008%=      5-min Rain = 0
KDVS 232345Z 22019G27KT 34/M05 A297 RMK A01 T03401054  RH  008%=      5-min Rain = 0
KDVS 232350Z 21019G27KT 34/M06 A297 RMK A01 T03391058  RH  008%=      5-min Rain = 0
KDVS 232355Z 21018G23KT 34/M06 A297 RMK A01 T03371062  RH  007%=      5-min Rain = 0
KDVS 240000Z 21018KT 34/M07 A297 RMK A01 T03351068  RH  007%=      5-min Rain = 0
KDVS 240005Z 22018KT 33/M07 A2969 RMK A01 T03341074  RH  007%=      5-min Rain = 0
KDVS 240010Z 22018G24KT 33/M07 A2969 RMK A01 T03331074  RH  007%=      5-min Rain = 0
KDVS 240015Z 22013KT 34/M07 A2969 RMK A01 T03351072  RH  007%=      5-min Rain = 0
KDVS 240020Z 20015KT 33/M07 A2969 RMK A01 T03331073  RH  007%=      5-min Rain = 0
KDVS 240025Z 21018KT 33/M08 A2969 RMK A01 T03301077  RH  007%=      5-min Rain = 0
KDVS 240030Z 20016G21KT 33/M03 A297 RMK A01 T03291030  RH  011%=      5-min Rain = 0
KDVS 240035Z 19022G30KT 31/10 A2971 RMK A01 T03130099  RH  028%=      5-min Rain = 0
KDVS 240040Z 19022G30KT 31/10 A2971 RMK A01 T03050101  RH  029%=      5-min Rain = 0
KDVS 240045Z 18020G26KT 30/09 A2971 RMK A01 T03040093  RH  028%=      5-min Rain = 0
KDVS 240050Z 18022G28KT 30/08 A2971 RMK A01 T03020082  RH  026%=      5-min Rain = 0
KDVS 240055Z 18020G28KT 30/07 A2972 RMK A01 T03020070  RH  024%=      5-min Rain = 0
KDVS 240100Z 17019G25KT 30/06 A2973 RMK A01 T03010060  RH  022%=      5-min Rain = 0
KDVS 240105Z 18018G23KT 30/06 A2973 RMK A01 T03010055  RH  022%=      5-min Rain = 0
KDVS 240110Z 17019G26KT 30/05 A2973 RMK A01 T02990047  RH  021%=      5-min Rain = 0
KDVS 240115Z 18021G29KT 30/04 A2973 RMK A01 T02980038  RH  019%=      5-min Rain = 0
KDVS 240120Z 17024G30KT 30/03 A2974 RMK A01 T02970025  RH  018%=      5-min Rain = 0
KDVS 240125Z 17022G29KT 30/00 A2974 RMK A01 T02950003  RH  015%=      5-min Rain = 0
KDVS 240130Z 17020G30KT 29/M01 A2975 RMK A01 T02931006  RH  015%=      5-min Rain = 0
KDVS 240135Z 17024G31KT 29/M01 A2975 RMK A01 T02911009  RH  014%=      5-min Rain = 0
KDVS 240140Z 17021G27KT 29/M01 A2975 RMK A01 T02891008  RH  015%=      5-min Rain = 0
KDVS 240145Z 17018G23KT 29/M01 A2976 RMK A01 T02861005  RH  015%=      5-min Rain = 0
KDVS 240150Z 17016G22KT 28/M00 A2976 RMK A01 T02841003  RH  016%=      5-min Rain = 0
KDVS 240155Z 17015G21KT 28/M00 A2977 RMK A01 T02811002  RH  016%=      5-min Rain = 0
KDVS 240200Z 16015G21KT 28/00 A2977 RMK A01 T02780002  RH  017%=      5-min Rain = 0
KDVS 240205Z 16015G20KT 28/00 A2978 RMK A01 T02760003  RH  017%=      5-min Rain = 0
KDVS 240210Z 16012G17KT 27/01 A2978 RMK A01 T02730006  RH  018%=      5-min Rain = 0
KDVS 240215Z 15013G18KT 27/01 A2978 RMK A01 T02690007  RH  018%=      5-min Rain = 0
KDVS 240220Z 13012G17KT 26/04 A2979 RMK A01 T02630039  RH  025%=      5-min Rain = 0
KDVS 240225Z 12013G19KT 23/11 A2979 RMK A01 T02290109  RH  049%=      5-min Rain = 0
KDVS 240230Z 13010KT 22/11 A2979 RMK A01 T02160110  RH  053%=      5-min Rain = 0
KDVS 240235Z 11012G18KT 21/11 A2979 RMK A01 T02130109  RH  053%=      5-min Rain = 0
KDVS 240240Z 10016G23KT 21/11 A298 RMK A01 T02110111  RH  055%=      5-min Rain = 0
KDVS 240245Z 10017G23KT 21/11 A298 RMK A01 T02090110  RH  055%=      5-min Rain = 0
KDVS 240250Z 11016KT 21/11 A298 RMK A01 T02120105  RH  052%=      5-min Rain = 0
KDVS 240255Z 13016G23KT 22/09 A2981 RMK A01 T02190087  RH  044%=      5-min Rain = 0
KDVS 240300Z 14018G23KT 23/07 A2981 RMK A01 T02310074  RH  037%=      5-min Rain = 0
KDVS 240305Z 15018G24KT 24/06 A2981 RMK A01 T02390056  RH  031%=      5-min Rain = 0
KDVS 240310Z 16017KT 24/06 A2982 RMK A01 T02420058  RH  031%=      5-min Rain = 0
KDVS 240315Z 15016G25KT 24/06 A2982 RMK A01 T02420064  RH  033%=      5-min Rain = 0
KDVS 240320Z 14014G20KT 24/07 A2982 RMK A01 T02390068  RH  034%=      5-min Rain = 0
KDVS 240325Z 15012KT 24/08 A2983 RMK A01 T02370075  RH  036%=      5-min Rain = 0
KDVS 240330Z 16015G21KT 24/10 A2983 RMK A01 T02380096  RH  042%=      5-min Rain = 0
KDVS 240335Z 17017G23KT 24/10 A2983 RMK A01 T02400097  RH  042%=      5-min Rain = 0
KDVS 240340Z 17016G22KT 24/10 A2983 RMK A01 T02390095  RH  042%=      5-min Rain = 0
KDVS 240345Z 17015G22KT 24/10 A2984 RMK A01 T02370095  RH  042%=      5-min Rain = 0
KDVS 240350Z 17015G20KT 24/10 A2984 RMK A01 T02350096  RH  043%=      5-min Rain = 0
KDVS 240355Z 18017G23KT 24/10 A2984 RMK A01 T02350097  RH  043%=      5-min Rain = 0
KDVS 240400Z 18015G21KT 23/10 A2984 RMK A01 T02340098  RH  044%=      5-min Rain = 0
KDVS 240405Z 18016G21KT 23/10 A2985 RMK A01 T02320100  RH  044%=      5-min Rain = 0
KDVS 240410Z 18017G23KT 23/10 A2985 RMK A01 T02320104  RH  046%=      5-min Rain = 0
KDVS 240415Z 18018G24KT 23/11 A2985 RMK A01 T02310109  RH  048%=      5-min Rain = 0
KDVS 240420Z 18017G24KT 23/11 A2985 RMK A01 T02300112  RH  049%=      5-min Rain = 0
KDVS 240425Z 19017G23KT 23/11 A2985 RMK A01 T02290113  RH  050%=      5-min Rain = 0
KDVS 240430Z 18018G24KT 23/11 A2985 RMK A01 T02280114  RH  050%=      5-min Rain = 0
KDVS 240435Z 19016G22KT 23/11 A2985 RMK A01 T02280114  RH  050%=      5-min Rain = 0
KDVS 240440Z 18016G23KT 23/12 A2986 RMK A01 T02270115  RH  051%=      5-min Rain = 0
KDVS 240445Z 18016G21KT 23/12 A2986 RMK A01 T02260116  RH  052%=      5-min Rain = 0
KDVS 240450Z 18015G21KT 22/12 A2986 RMK A01 T02240117  RH  052%=      5-min Rain = 0
KDVS 240455Z 18015G20KT 22/12 A2986 RMK A01 T02230117  RH  053%=      5-min Rain = 0

Page generated in 0.0094 seconds.